sensor_id;sensor_type;location;lat;lon;timestamp;temperature;humidity
2539;DHT22;1280;49.760;9.664;2023-05-10T00:02:11;18.40;79.50
2539;DHT22;1280;49.760;9.664;2023-05-10T00:04:40;18.40;79.50
2539;DHT22;1280;49.760;9.664;2023-05-10T00:07:26;18.30;79.40
2539;DHT22;1280;49.760;9.664;2023-05-10T00:10:18;18.30;79.60
2539;DHT22;1280;49.760;9.664;2023-05-10T00:12:51;18.30;79.60
2539;DHT22;1280;49.760;9.664;2023-05-10T00:15:31;18.30;79.50
2539;DHT22;1280;49.760;9.664;2023-05-10T00:18:05;18.30;79.50
2539;DHT22;1280;49.760;9.664;2023-05-10T00:20:37;18.30;79.50
2539;DHT22;1280;49.760;9.664;2023-05-10T00:23:11;18.30;79.50
2539;DHT22;1280;49.760;9.664;2023-05-10T00:25:46;18.30;79.60
2539;DHT22;1280;49.760;9.664;2023-05-10T00:28:15;18.30;79.60
2539;DHT22;1280;49.760;9.664;2023-05-10T00:30:49;18.30;79.60
2539;DHT22;1280;49.760;9.664;2023-05-10T00:33:22;18.30;79.60
2539;DHT22;1280;49.760;9.664;2023-05-10T00:36:02;18.20;79.60
2539;DHT22;1280;49.760;9.664;2023-05-10T00:38:31;18.20;79.60
2539;DHT22;1280;49.760;9.664;2023-05-10T00:41:05;18.20;79.60
2539;DHT22;1280;49.760;9.664;2023-05-10T00:43:37;18.20;79.70
2539;DHT22;1280;49.760;9.664;2023-05-10T00:46:13;18.20;79.60
2539;DHT22;1280;49.760;9.664;2023-05-10T00:48:48;18.20;79.70
2539;DHT22;1280;49.760;9.664;2023-05-10T00:51:25;18.20;79.70
2539;DHT22;1280;49.760;9.664;2023-05-10T00:53:58;18.10;79.70
2539;DHT22;1280;49.760;9.664;2023-05-10T00:56:40;18.10;79.80
2539;DHT22;1280;49.760;9.664;2023-05-10T00:59:19;18.10;79.80
2539;DHT22;1280;49.760;9.664;2023-05-10T01:01:58;18.00;79.80
2539;DHT22;1280;49.760;9.664;2023-05-10T01:04:33;18.00;79.90
2539;DHT22;1280;49.760;9.664;2023-05-10T01:07:09;18.00;79.90
2539;DHT22;1280;49.760;9.664;2023-05-10T01:09:44;18.00;80.00
2539;DHT22;1280;49.760;9.664;2023-05-10T01:12:23;17.90;80.00
2539;DHT22;1280;49.760;9.664;2023-05-10T01:14:54;17.90;80.10
2539;DHT22;1280;49.760;9.664;2023-05-10T01:17:35;17.90;80.10
2539;DHT22;1280;49.760;9.664;2023-05-10T01:20:10;17.90;80.10
2539;DHT22;1280;49.760;9.664;2023-05-10T01:29:17;17.80;80.00
2539;DHT22;1280;49.760;9.664;2023-05-10T01:32:23;17.80;80.00
2539;DHT22;1280;49.760;9.664;2023-05-10T01:35:07;17.80;79.90
2539;DHT22;1280;49.760;9.664;2023-05-10T01:37:47;17.80;79.80
2539;DHT22;1280;49.760;9.664;2023-05-10T01:40:39;17.80;79.90
2539;DHT22;1280;49.760;9.664;2023-05-10T01:43:13;17.80;79.70
2539;DHT22;1280;49.760;9.664;2023-05-10T01:45:57;17.70;79.70
2539;DHT22;1280;49.760;9.664;2023-05-10T01:48:57;17.70;79.70
2539;DHT22;1280;49.760;9.664;2023-05-10T01:51:35;17.70;79.70
2539;DHT22;1280;49.760;9.664;2023-05-10T01:54:11;17.60;79.70
2539;DHT22;1280;49.760;9.664;2023-05-10T01:56:59;17.60;79.70
2539;DHT22;1280;49.760;9.664;2023-05-10T01:59:37;17.60;79.70
2539;DHT22;1280;49.760;9.664;2023-05-10T02:02:14;17.60;79.70
2539;DHT22;1280;49.760;9.664;2023-05-10T02:05:01;17.50;79.70
2539;DHT22;1280;49.760;9.664;2023-05-10T02:07:40;17.40;79.60
2539;DHT22;1280;49.760;9.664;2023-05-10T02:10:18;17.40;79.80
2539;DHT22;1280;49.760;9.664;2023-05-10T02:12:52;17.30;79.80
2539;DHT22;1280;49.760;9.664;2023-05-10T02:15:23;17.40;79.70
2539;DHT22;1280;49.760;9.664;2023-05-10T02:17:57;17.40;79.60
2539;DHT22;1280;49.760;9.664;2023-05-10T02:20:34;17.30;79.50
2539;DHT22;1280;49.760;9.664;2023-05-10T02:23:08;17.30;79.50
2539;DHT22;1280;49.760;9.664;2023-05-10T02:25:43;17.20;79.40
2539;DHT22;1280;49.760;9.664;2023-05-10T02:28:19;17.20;79.50
2539;DHT22;1280;49.760;9.664;2023-05-10T02:30:55;17.20;79.40
2539;DHT22;1280;49.760;9.664;2023-05-10T02:33:32;17.10;79.30
2539;DHT22;1280;49.760;9.664;2023-05-10T02:36:08;17.10;79.40
2539;DHT22;1280;49.760;9.664;2023-05-10T02:38:42;17.10;79.30
2539;DHT22;1280;49.760;9.664;2023-05-10T02:41:16;17.10;79.30
2539;DHT22;1280;49.760;9.664;2023-05-10T02:43:56;17.10;79.30
2539;DHT22;1280;49.760;9.664;2023-05-10T02:46:33;17.10;79.30
2539;DHT22;1280;49.760;9.664;2023-05-10T02:49:03;17.10;79.30
2539;DHT22;1280;49.760;9.664;2023-05-10T02:51:47;17.00;79.30
2539;DHT22;1280;49.760;9.664;2023-05-10T02:54:26;17.10;79.30
2539;DHT22;1280;49.760;9.664;2023-05-10T02:57:01;17.00;79.20
2539;DHT22;1280;49.760;9.664;2023-05-10T02:59:34;17.00;79.30
2539;DHT22;1280;49.760;9.664;2023-05-10T03:02:08;17.00;79.30
2539;DHT22;1280;49.760;9.664;2023-05-10T03:04:38;17.00;79.30
2539;DHT22;1280;49.760;9.664;2023-05-10T03:07:22;17.00;79.30
2539;DHT22;1280;49.760;9.664;2023-05-10T03:09:52;17.00;79.30
2539;DHT22;1280;49.760;9.664;2023-05-10T03:12:45;16.90;79.30
2539;DHT22;1280;49.760;9.664;2023-05-10T03:15:32;16.90;79.30
2539;DHT22;1280;49.760;9.664;2023-05-10T03:18:09;17.00;79.30
2539;DHT22;1280;49.760;9.664;2023-05-10T03:20:45;16.90;79.20
2539;DHT22;1280;49.760;9.664;2023-05-10T03:23:26;16.90;79.30
2539;DHT22;1280;49.760;9.664;2023-05-10T03:25:59;16.90;79.30
2539;DHT22;1280;49.760;9.664;2023-05-10T03:28:34;16.90;79.30
2539;DHT22;1280;49.760;9.664;2023-05-10T03:31:07;16.90;79.30
2539;DHT22;1280;49.760;9.664;2023-05-10T03:33:49;16.80;79.20
2539;DHT22;1280;49.760;9.664;2023-05-10T03:36:26;16.80;79.30
2539;DHT22;1280;49.760;9.664;2023-05-10T03:39:03;16.80;79.30
2539;DHT22;1280;49.760;9.664;2023-05-10T03:41:39;16.80;79.30
2539;DHT22;1280;49.760;9.664;2023-05-10T03:44:13;16.80;79.30
2539;DHT22;1280;49.760;9.664;2023-05-10T03:46:45;16.70;79.30
2539;DHT22;1280;49.760;9.664;2023-05-10T03:49:18;16.70;79.30
2539;DHT22;1280;49.760;9.664;2023-05-10T03:51:55;16.80;79.30
2539;DHT22;1280;49.760;9.664;2023-05-10T03:54:37;16.80;79.30
2539;DHT22;1280;49.760;9.664;2023-05-10T03:57:15;16.80;79.30
2539;DHT22;1280;49.760;9.664;2023-05-10T03:59:43;16.70;79.30
2539;DHT22;1280;49.760;9.664;2023-05-10T04:02:13;16.70;79.30
2539;DHT22;1280;49.760;9.664;2023-05-10T04:04:46;16.70;79.30
2539;DHT22;1280;49.760;9.664;2023-05-10T04:07:21;16.70;79.40
2539;DHT22;1280;49.760;9.664;2023-05-10T04:10:05;16.70;79.40
2539;DHT22;1280;49.760;9.664;2023-05-10T04:12:44;16.70;79.30
2539;DHT22;1280;49.760;9.664;2023-05-10T04:15:18;16.80;79.30
2539;DHT22;1280;49.760;9.664;2023-05-10T04:17:54;16.70;79.20
2539;DHT22;1280;49.760;9.664;2023-05-10T04:20:35;16.70;79.40
2539;DHT22;1280;49.760;9.664;2023-05-10T04:23:05;16.70;79.40
2539;DHT22;1280;49.760;9.664;2023-05-10T04:25:49;16.70;79.40
2539;DHT22;1280;49.760;9.664;2023-05-10T04:28:20;16.70;79.20
2539;DHT22;1280;49.760;9.664;2023-05-10T04:30:52;16.70;79.30
2539;DHT22;1280;49.760;9.664;2023-05-10T04:33:27;16.70;79.30
2539;DHT22;1280;49.760;9.664;2023-05-10T04:35:58;16.70;79.40
2539;DHT22;1280;49.760;9.664;2023-05-10T04:38:33;16.70;79.40
2539;DHT22;1280;49.760;9.664;2023-05-10T04:41:14;16.70;79.40
2539;DHT22;1280;49.760;9.664;2023-05-10T04:43:47;16.70;79.30
2539;DHT22;1280;49.760;9.664;2023-05-10T04:46:31;16.70;79.40
2539;DHT22;1280;49.760;9.664;2023-05-10T04:49:06;16.70;79.40
2539;DHT22;1280;49.760;9.664;2023-05-10T04:51:40;16.70;79.50
2539;DHT22;1280;49.760;9.664;2023-05-10T04:54:19;16.70;79.40
2539;DHT22;1280;49.760;9.664;2023-05-10T04:57:01;16.70;79.50
2539;DHT22;1280;49.760;9.664;2023-05-10T04:59:36;16.70;79.40
2539;DHT22;1280;49.760;9.664;2023-05-10T05:02:15;16.70;79.40
2539;DHT22;1280;49.760;9.664;2023-05-10T05:04:51;16.70;79.40
2539;DHT22;1280;49.760;9.664;2023-05-10T05:07:25;16.70;79.40
2539;DHT22;1280;49.760;9.664;2023-05-10T05:10:01;16.80;79.40
2539;DHT22;1280;49.760;9.664;2023-05-10T05:12:45;16.80;79.40
2539;DHT22;1280;49.760;9.664;2023-05-10T05:15:14;16.80;79.40
2539;DHT22;1280;49.760;9.664;2023-05-10T05:17:48;16.80;79.40
2539;DHT22;1280;49.760;9.664;2023-05-10T05:20:23;16.90;79.40
2539;DHT22;1280;49.760;9.664;2023-05-10T05:23:00;16.90;79.30
2539;DHT22;1280;49.760;9.664;2023-05-10T05:25:39;16.90;79.30
2539;DHT22;1280;49.760;9.664;2023-05-10T05:28:31;16.90;79.30
2539;DHT22;1280;49.760;9.664;2023-05-10T05:31:08;16.90;79.40
2539;DHT22;1280;49.760;9.664;2023-05-10T05:33:40;16.90;79.30
2539;DHT22;1280;49.760;9.664;2023-05-10T05:36:12;16.90;79.30
2539;DHT22;1280;49.760;9.664;2023-05-10T05:38:48;16.90;79.30
2539;DHT22;1280;49.760;9.664;2023-05-10T05:41:21;16.90;79.30
2539;DHT22;1280;49.760;9.664;2023-05-10T05:43:58;16.90;79.30
2539;DHT22;1280;49.760;9.664;2023-05-10T05:46:30;16.90;79.40
2539;DHT22;1280;49.760;9.664;2023-05-10T05:49:10;16.90;79.30
2539;DHT22;1280;49.760;9.664;2023-05-10T05:51:46;16.90;79.30
2539;DHT22;1280;49.760;9.664;2023-05-10T05:54:22;16.90;79.40
2539;DHT22;1280;49.760;9.664;2023-05-10T05:57:00;16.90;79.40
2539;DHT22;1280;49.760;9.664;2023-05-10T05:59:44;16.90;79.30
2539;DHT22;1280;49.760;9.664;2023-05-10T06:02:18;16.90;79.30
2539;DHT22;1280;49.760;9.664;2023-05-10T06:04:50;16.90;79.40
2539;DHT22;1280;49.760;9.664;2023-05-10T06:07:31;16.90;79.60
2539;DHT22;1280;49.760;9.664;2023-05-10T06:10:12;17.00;79.60
2539;DHT22;1280;49.760;9.664;2023-05-10T06:12:43;17.10;79.60
2539;DHT22;1280;49.760;9.664;2023-05-10T06:15:30;17.10;79.60
2539;DHT22;1280;49.760;9.664;2023-05-10T06:18:00;17.10;79.50
2539;DHT22;1280;49.760;9.664;2023-05-10T06:20:41;17.20;79.50
2539;DHT22;1280;49.760;9.664;2023-05-10T06:23:16;17.20;79.40
2539;DHT22;1280;49.760;9.664;2023-05-10T06:25:56;17.20;79.30
2539;DHT22;1280;49.760;9.664;2023-05-10T06:28:34;17.20;79.40
2539;DHT22;1280;49.760;9.664;2023-05-10T06:31:15;17.20;79.40
2539;DHT22;1280;49.760;9.664;2023-05-10T06:33:49;17.20;79.30
2539;DHT22;1280;49.760;9.664;2023-05-10T06:36:24;17.10;79.40
2539;DHT22;1280;49.760;9.664;2023-05-10T06:38:59;17.20;79.40
2539;DHT22;1280;49.760;9.664;2023-05-10T06:41:37;17.20;79.40
2539;DHT22;1280;49.760;9.664;2023-05-10T06:44:12;17.20;79.50
2539;DHT22;1280;49.760;9.664;2023-05-10T06:46:49;17.20;79.60
2539;DHT22;1280;49.760;9.664;2023-05-10T06:49:28;17.30;79.60
2539;DHT22;1280;49.760;9.664;2023-05-10T06:52:05;17.30;79.60
2539;DHT22;1280;49.760;9.664;2023-05-10T06:54:42;17.30;79.50
2539;DHT22;1280;49.760;9.664;2023-05-10T06:57:18;17.40;79.40
2539;DHT22;1280;49.760;9.664;2023-05-10T07:00:00;17.40;79.30
2539;DHT22;1280;49.760;9.664;2023-05-10T07:02:37;17.40;79.20
2539;DHT22;1280;49.760;9.664;2023-05-10T07:05:08;17.40;79.10
2539;DHT22;1280;49.760;9.664;2023-05-10T07:07:48;17.40;79.00
2539;DHT22;1280;49.760;9.664;2023-05-10T07:10:24;17.40;79.00
2539;DHT22;1280;49.760;9.664;2023-05-10T07:12:55;17.40;78.80
2539;DHT22;1280;49.760;9.664;2023-05-10T07:15:30;17.40;78.80
2539;DHT22;1280;49.760;9.664;2023-05-10T07:18:12;17.50;78.80
2539;DHT22;1280;49.760;9.664;2023-05-10T07:20:46;17.50;78.80
2539;DHT22;1280;49.760;9.664;2023-05-10T07:23:19;17.60;78.80
2539;DHT22;1280;49.760;9.664;2023-05-10T07:25:51;17.60;78.80
2539;DHT22;1280;49.760;9.664;2023-05-10T07:28:25;17.70;78.60
2539;DHT22;1280;49.760;9.664;2023-05-10T07:30:59;17.70;78.50
2539;DHT22;1280;49.760;9.664;2023-05-10T07:33:47;17.70;78.40
2539;DHT22;1280;49.760;9.664;2023-05-10T07:36:20;17.80;78.30
2539;DHT22;1280;49.760;9.664;2023-05-10T07:38:51;17.80;78.20
2539;DHT22;1280;49.760;9.664;2023-05-10T07:41:30;17.80;78.10
2539;DHT22;1280;49.760;9.664;2023-05-10T07:44:10;17.90;78.00
2539;DHT22;1280;49.760;9.664;2023-05-10T07:46:46;17.90;77.70
2539;DHT22;1280;49.760;9.664;2023-05-10T07:49:39;17.90;77.60
2539;DHT22;1280;49.760;9.664;2023-05-10T07:52:15;18.00;77.70
2539;DHT22;1280;49.760;9.664;2023-05-10T07:54:50;18.00;77.70
2539;DHT22;1280;49.760;9.664;2023-05-10T07:57:26;18.10;77.70
2539;DHT22;1280;49.760;9.664;2023-05-10T07:59:56;18.20;77.60
2539;DHT22;1280;49.760;9.664;2023-05-10T08:02:26;18.30;77.50
2539;DHT22;1280;49.760;9.664;2023-05-10T08:05:01;18.30;77.30
2539;DHT22;1280;49.760;9.664;2023-05-10T08:07:32;18.30;77.20
2539;DHT22;1280;49.760;9.664;2023-05-10T08:10:11;18.40;77.10
2539;DHT22;1280;49.760;9.664;2023-05-10T08:12:43;18.40;76.90
2539;DHT22;1280;49.760;9.664;2023-05-10T08:15:22;18.30;76.70
2539;DHT22;1280;49.760;9.664;2023-05-10T08:17:56;18.20;76.70
2539;DHT22;1280;49.760;9.664;2023-05-10T08:20:38;18.20;76.60
2539;DHT22;1280;49.760;9.664;2023-05-10T08:23:07;18.20;76.60
2539;DHT22;1280;49.760;9.664;2023-05-10T08:25:36;18.20;76.40
2539;DHT22;1280;49.760;9.664;2023-05-10T08:28:21;18.20;76.30
2539;DHT22;1280;49.760;9.664;2023-05-10T08:30:53;18.20;76.20
2539;DHT22;1280;49.760;9.664;2023-05-10T08:33:27;18.20;76.10
2539;DHT22;1280;49.760;9.664;2023-05-10T08:36:03;18.20;76.00
2539;DHT22;1280;49.760;9.664;2023-05-10T08:38:37;18.20;75.70
2539;DHT22;1280;49.760;9.664;2023-05-10T08:41:19;18.10;75.80
2539;DHT22;1280;49.760;9.664;2023-05-10T08:43:55;18.10;75.70
2539;DHT22;1280;49.760;9.664;2023-05-10T08:46:31;18.10;75.70
2539;DHT22;1280;49.760;9.664;2023-05-10T08:49:04;18.10;75.70
2539;DHT22;1280;49.760;9.664;2023-05-10T08:51:54;18.10;75.80
2539;DHT22;1280;49.760;9.664;2023-05-10T08:54:33;18.20;75.80
2539;DHT22;1280;49.760;9.664;2023-05-10T08:57:04;18.20;75.80
2539;DHT22;1280;49.760;9.664;2023-05-10T08:59:48;18.20;75.80
2539;DHT22;1280;49.760;9.664;2023-05-10T09:02:29;18.30;75.70
2539;DHT22;1280;49.760;9.664;2023-05-10T09:05:08;18.30;75.60
2539;DHT22;1280;49.760;9.664;2023-05-10T09:07:53;18.30;75.50
2539;DHT22;1280;49.760;9.664;2023-05-10T09:10:28;18.30;75.50
2539;DHT22;1280;49.760;9.664;2023-05-10T09:13:16;18.30;75.60
2539;DHT22;1280;49.760;9.664;2023-05-10T09:15:48;18.40;75.40
2539;DHT22;1280;49.760;9.664;2023-05-10T09:18:33;18.40;75.40
2539;DHT22;1280;49.760;9.664;2023-05-10T09:21:10;18.40;75.40
2539;DHT22;1280;49.760;9.664;2023-05-10T09:23:54;18.40;75.40
2539;DHT22;1280;49.760;9.664;2023-05-10T09:26:26;18.40;75.40
2539;DHT22;1280;49.760;9.664;2023-05-10T09:29:00;18.40;75.40
2539;DHT22;1280;49.760;9.664;2023-05-10T09:31:45;18.50;75.40
2539;DHT22;1280;49.760;9.664;2023-05-10T09:34:32;18.50;75.40
2539;DHT22;1280;49.760;9.664;2023-05-10T09:37:05;18.60;75.20
2539;DHT22;1280;49.760;9.664;2023-05-10T09:39:39;18.60;75.20
2539;DHT22;1280;49.760;9.664;2023-05-10T09:42:13;18.70;75.20
2539;DHT22;1280;49.760;9.664;2023-05-10T09:44:52;18.70;75.20
2539;DHT22;1280;49.760;9.664;2023-05-10T09:47:26;18.80;74.90
2539;DHT22;1280;49.760;9.664;2023-05-10T09:49:59;18.80;74.90
2539;DHT22;1280;49.760;9.664;2023-05-10T09:52:51;18.80;74.80
2539;DHT22;1280;49.760;9.664;2023-05-10T09:55:26;18.80;74.50
2539;DHT22;1280;49.760;9.664;2023-05-10T09:57:59;18.70;74.40
2539;DHT22;1280;49.760;9.664;2023-05-10T10:00:35;18.70;74.40
2539;DHT22;1280;49.760;9.664;2023-05-10T10:03:15;18.60;74.20
2539;DHT22;1280;49.760;9.664;2023-05-10T10:05:48;18.70;74.10
2539;DHT22;1280;49.760;9.664;2023-05-10T10:08:21;18.70;74.20
2539;DHT22;1280;49.760;9.664;2023-05-10T10:10:55;18.80;74.20
2539;DHT22;1280;49.760;9.664;2023-05-10T10:13:29;18.80;74.20
2539;DHT22;1280;49.760;9.664;2023-05-10T10:16:07;18.90;74.20
2539;DHT22;1280;49.760;9.664;2023-05-10T10:18:39;18.90;74.20
2539;DHT22;1280;49.760;9.664;2023-05-10T10:21:16;18.90;74.00
2539;DHT22;1280;49.760;9.664;2023-05-10T10:23:47;18.90;74.00
2539;DHT22;1280;49.760;9.664;2023-05-10T10:26:22;19.00;73.90
2539;DHT22;1280;49.760;9.664;2023-05-10T10:29:16;19.00;73.70
2539;DHT22;1280;49.760;9.664;2023-05-10T10:32:01;19.00;73.60
2539;DHT22;1280;49.760;9.664;2023-05-10T10:34:36;19.00;73.60
2539;DHT22;1280;49.760;9.664;2023-05-10T10:37:17;18.90;73.50
2539;DHT22;1280;49.760;9.664;2023-05-10T10:39:56;19.00;73.40
2539;DHT22;1280;49.760;9.664;2023-05-10T10:42:56;19.00;73.30
2539;DHT22;1280;49.760;9.664;2023-05-10T10:45:25;18.90;73.10
2539;DHT22;1280;49.760;9.664;2023-05-10T10:48:20;18.90;73.20
2539;DHT22;1280;49.760;9.664;2023-05-10T10:51:00;19.00;73.20
2539;DHT22;1280;49.760;9.664;2023-05-10T10:53:32;19.00;73.30
2539;DHT22;1280;49.760;9.664;2023-05-10T10:56:11;19.10;73.10
2539;DHT22;1280;49.760;9.664;2023-05-10T10:59:04;19.10;73.10
2539;DHT22;1280;49.760;9.664;2023-05-10T11:01:39;19.20;73.00
2539;DHT22;1280;49.760;9.664;2023-05-10T11:04:22;19.20;73.00
2539;DHT22;1280;49.760;9.664;2023-05-10T11:07:18;19.20;73.00
2539;DHT22;1280;49.760;9.664;2023-05-10T11:09:54;19.30;72.80
2539;DHT22;1280;49.760;9.664;2023-05-10T11:12:30;19.40;72.80
2539;DHT22;1280;49.760;9.664;2023-05-10T11:15:10;19.40;72.60
2539;DHT22;1280;49.760;9.664;2023-05-10T11:17:42;19.40;72.60
2539;DHT22;1280;49.760;9.664;2023-05-10T11:20:20;19.40;72.60
2539;DHT22;1280;49.760;9.664;2023-05-10T11:23:12;19.50;72.60
2539;DHT22;1280;49.760;9.664;2023-05-10T11:25:44;19.60;72.40
2539;DHT22;1280;49.760;9.664;2023-05-10T11:28:20;19.60;72.20
2539;DHT22;1280;49.760;9.664;2023-05-10T11:31:09;19.60;72.20
2539;DHT22;1280;49.760;9.664;2023-05-10T11:33:46;19.70;72.00
2539;DHT22;1280;49.760;9.664;2023-05-10T11:36:21;19.70;72.00
2539;DHT22;1280;49.760;9.664;2023-05-10T11:38:57;19.70;72.00
2539;DHT22;1280;49.760;9.664;2023-05-10T11:41:30;19.70;71.90
2539;DHT22;1280;49.760;9.664;2023-05-10T11:44:04;19.70;71.60
2539;DHT22;1280;49.760;9.664;2023-05-10T11:47:10;19.70;71.60
2539;DHT22;1280;49.760;9.664;2023-05-10T11:50:27;19.70;71.60
2539;DHT22;1280;49.760;9.664;2023-05-10T11:53:21;19.70;71.20
2539;DHT22;1280;49.760;9.664;2023-05-10T11:56:10;19.70;70.90
2539;DHT22;1280;49.760;9.664;2023-05-10T11:59:10;19.60;70.80
2539;DHT22;1280;49.760;9.664;2023-05-10T12:02:09;19.60;70.70
2539;DHT22;1280;49.760;9.664;2023-05-10T12:04:40;19.50;70.80
2539;DHT22;1280;49.760;9.664;2023-05-10T12:07:15;19.50;70.80
2539;DHT22;1280;49.760;9.664;2023-05-10T12:10:06;19.50;70.60
2539;DHT22;1280;49.760;9.664;2023-05-10T12:12:44;19.30;70.50
2539;DHT22;1280;49.760;9.664;2023-05-10T12:15:20;19.20;70.40
2539;DHT22;1280;49.760;9.664;2023-05-10T12:17:54;19.00;70.40
2539;DHT22;1280;49.760;9.664;2023-05-10T12:20:28;18.90;70.70
2539;DHT22;1280;49.760;9.664;2023-05-10T12:22:59;18.80;70.90
2539;DHT22;1280;49.760;9.664;2023-05-10T12:25:37;18.70;71.00
2539;DHT22;1280;49.760;9.664;2023-05-10T12:28:10;18.70;71.20
2539;DHT22;1280;49.760;9.664;2023-05-10T12:30:50;18.60;71.50
2539;DHT22;1280;49.760;9.664;2023-05-10T12:33:27;18.50;71.80
2539;DHT22;1280;49.760;9.664;2023-05-10T12:36:10;18.40;72.10
2539;DHT22;1280;49.760;9.664;2023-05-10T12:38:47;18.40;72.30
2539;DHT22;1280;49.760;9.664;2023-05-10T12:41:18;18.30;72.70
2539;DHT22;1280;49.760;9.664;2023-05-10T12:43:55;18.20;73.00
2539;DHT22;1280;49.760;9.664;2023-05-10T12:46:26;18.20;73.20
2539;DHT22;1280;49.760;9.664;2023-05-10T12:49:03;18.10;73.50
2539;DHT22;1280;49.760;9.664;2023-05-10T12:51:40;18.10;73.60
2539;DHT22;1280;49.760;9.664;2023-05-10T12:54:19;18.20;73.80
2539;DHT22;1280;49.760;9.664;2023-05-10T12:56:54;18.20;74.00
2539;DHT22;1280;49.760;9.664;2023-05-10T12:59:26;18.30;74.10
2539;DHT22;1280;49.760;9.664;2023-05-10T13:02:05;18.40;74.00
2539;DHT22;1280;49.760;9.664;2023-05-10T13:04:43;18.40;74.00
2539;DHT22;1280;49.760;9.664;2023-05-10T13:07:13;18.40;74.00
2539;DHT22;1280;49.760;9.664;2023-05-10T13:09:49;18.40;74.00
2539;DHT22;1280;49.760;9.664;2023-05-10T13:12:30;18.40;74.00
2539;DHT22;1280;49.760;9.664;2023-05-10T13:15:10;18.40;74.10
2539;DHT22;1280;49.760;9.664;2023-05-10T13:17:44;18.40;74.20
2539;DHT22;1280;49.760;9.664;2023-05-10T13:20:21;18.40;74.30
2539;DHT22;1280;49.760;9.664;2023-05-10T13:22:49;18.50;74.30
2539;DHT22;1280;49.760;9.664;2023-05-10T13:25:22;18.50;74.30
2539;DHT22;1280;49.760;9.664;2023-05-10T13:27:53;18.50;74.20
2539;DHT22;1280;49.760;9.664;2023-05-10T13:30:27;18.50;74.10
2539;DHT22;1280;49.760;9.664;2023-05-10T13:33:04;18.50;74.20
2539;DHT22;1280;49.760;9.664;2023-05-10T13:35:42;18.50;74.20
2539;DHT22;1280;49.760;9.664;2023-05-10T13:38:13;18.50;74.30
2539;DHT22;1280;49.760;9.664;2023-05-10T13:40:49;18.50;74.20
2539;DHT22;1280;49.760;9.664;2023-05-10T13:43:30;18.50;74.30
2539;DHT22;1280;49.760;9.664;2023-05-10T13:46:08;18.60;74.20
2539;DHT22;1280;49.760;9.664;2023-05-10T13:48:44;18.60;74.20
2539;DHT22;1280;49.760;9.664;2023-05-10T13:51:21;18.60;74.30
2539;DHT22;1280;49.760;9.664;2023-05-10T13:53:52;18.60;74.30
2539;DHT22;1280;49.760;9.664;2023-05-10T13:56:32;18.70;74.30
2539;DHT22;1280;49.760;9.664;2023-05-10T13:59:03;18.70;74.30
2539;DHT22;1280;49.760;9.664;2023-05-10T14:01:37;18.80;74.40
2539;DHT22;1280;49.760;9.664;2023-05-10T14:04:14;18.90;74.30
2539;DHT22;1280;49.760;9.664;2023-05-10T14:06:55;18.90;74.20
2539;DHT22;1280;49.760;9.664;2023-05-10T14:09:35;19.00;74.20
2539;DHT22;1280;49.760;9.664;2023-05-10T14:12:08;19.00;74.10
2539;DHT22;1280;49.760;9.664;2023-05-10T14:14:41;19.00;74.00
2539;DHT22;1280;49.760;9.664;2023-05-10T14:17:22;19.00;74.10
2539;DHT22;1280;49.760;9.664;2023-05-10T14:19:56;19.00;74.10
2539;DHT22;1280;49.760;9.664;2023-05-10T14:22:36;19.00;74.00
2539;DHT22;1280;49.760;9.664;2023-05-10T14:25:07;19.00;74.00
2539;DHT22;1280;49.760;9.664;2023-05-10T14:27:36;19.00;74.00
2539;DHT22;1280;49.760;9.664;2023-05-10T14:30:10;19.00;73.80
2539;DHT22;1280;49.760;9.664;2023-05-10T14:32:41;19.10;73.80
2539;DHT22;1280;49.760;9.664;2023-05-10T14:35:13;19.00;73.70
2539;DHT22;1280;49.760;9.664;2023-05-10T14:37:51;19.00;73.70
2539;DHT22;1280;49.760;9.664;2023-05-10T14:40:19;19.00;73.80
2539;DHT22;1280;49.760;9.664;2023-05-10T14:42:51;19.00;73.80
2539;DHT22;1280;49.760;9.664;2023-05-10T14:45:31;19.00;73.80
2539;DHT22;1280;49.760;9.664;2023-05-10T14:48:11;19.10;73.70
2539;DHT22;1280;49.760;9.664;2023-05-10T14:50:45;19.10;73.60
2539;DHT22;1280;49.760;9.664;2023-05-10T14:53:26;19.10;73.50
2539;DHT22;1280;49.760;9.664;2023-05-10T14:55:57;19.10;73.50
2539;DHT22;1280;49.760;9.664;2023-05-10T14:58:37;19.10;73.40
2539;DHT22;1280;49.760;9.664;2023-05-10T15:01:09;19.10;73.30
2539;DHT22;1280;49.760;9.664;2023-05-10T15:03:46;19.20;73.10
2539;DHT22;1280;49.760;9.664;2023-05-10T15:06:31;19.10;73.10
2539;DHT22;1280;49.760;9.664;2023-05-10T15:09:08;19.20;73.00
2539;DHT22;1280;49.760;9.664;2023-05-10T15:11:43;19.20;73.00
2539;DHT22;1280;49.760;9.664;2023-05-10T15:14:17;19.20;72.90
2539;DHT22;1280;49.760;9.664;2023-05-10T15:16:47;19.20;72.90
2539;DHT22;1280;49.760;9.664;2023-05-10T15:19:25;19.20;72.80
2539;DHT22;1280;49.760;9.664;2023-05-10T15:22:00;19.20;72.70
2539;DHT22;1280;49.760;9.664;2023-05-10T15:24:41;19.20;72.60
2539;DHT22;1280;49.760;9.664;2023-05-10T15:27:15;19.20;72.60
2539;DHT22;1280;49.760;9.664;2023-05-10T15:29:48;19.20;72.60
2539;DHT22;1280;49.760;9.664;2023-05-10T15:32:27;19.20;72.50
2539;DHT22;1280;49.760;9.664;2023-05-10T15:35:01;19.20;72.40
2539;DHT22;1280;49.760;9.664;2023-05-10T15:37:37;19.20;72.30
2539;DHT22;1280;49.760;9.664;2023-05-10T15:40:15;19.30;72.10
2539;DHT22;1280;49.760;9.664;2023-05-10T15:42:48;19.30;71.80
2539;DHT22;1280;49.760;9.664;2023-05-10T15:45:21;19.30;71.70
2539;DHT22;1280;49.760;9.664;2023-05-10T15:47:51;19.30;71.60
2539;DHT22;1280;49.760;9.664;2023-05-10T15:50:28;19.30;71.60
2539;DHT22;1280;49.760;9.664;2023-05-10T15:53:02;19.30;71.50
2539;DHT22;1280;49.760;9.664;2023-05-10T15:55:37;19.30;71.50
2539;DHT22;1280;49.760;9.664;2023-05-10T15:58:13;19.30;71.50
2539;DHT22;1280;49.760;9.664;2023-05-10T16:00:44;19.30;71.50
2539;DHT22;1280;49.760;9.664;2023-05-10T16:03:15;19.30;71.40
2539;DHT22;1280;49.760;9.664;2023-05-10T16:05:52;19.30;71.20
2539;DHT22;1280;49.760;9.664;2023-05-10T16:08:25;19.30;71.10
2539;DHT22;1280;49.760;9.664;2023-05-10T16:10:57;19.20;71.00
2539;DHT22;1280;49.760;9.664;2023-05-10T16:13:33;19.20;70.90
2539;DHT22;1280;49.760;9.664;2023-05-10T16:16:05;19.20;70.80
2539;DHT22;1280;49.760;9.664;2023-05-10T16:18:42;19.10;70.80
2539;DHT22;1280;49.760;9.664;2023-05-10T16:21:19;19.00;70.70
2539;DHT22;1280;49.760;9.664;2023-05-10T16:23:53;19.00;70.70
2539;DHT22;1280;49.760;9.664;2023-05-10T16:26:45;18.90;70.90
2539;DHT22;1280;49.760;9.664;2023-05-10T16:29:16;18.90;70.90
2539;DHT22;1280;49.760;9.664;2023-05-10T16:31:53;18.80;70.90
2539;DHT22;1280;49.760;9.664;2023-05-10T16:34:32;18.80;70.90
2539;DHT22;1280;49.760;9.664;2023-05-10T16:37:08;18.70;70.90
2539;DHT22;1280;49.760;9.664;2023-05-10T16:39:40;18.70;70.90
2539;DHT22;1280;49.760;9.664;2023-05-10T16:42:27;18.70;71.00
2539;DHT22;1280;49.760;9.664;2023-05-10T16:44:59;18.80;70.90
2539;DHT22;1280;49.760;9.664;2023-05-10T16:47:38;18.70;71.00
2539;DHT22;1280;49.760;9.664;2023-05-10T16:50:14;18.80;71.00
2539;DHT22;1280;49.760;9.664;2023-05-10T16:52:47;18.80;71.10
2539;DHT22;1280;49.760;9.664;2023-05-10T16:55:18;18.80;71.20
2539;DHT22;1280;49.760;9.664;2023-05-10T16:58:06;18.80;71.20
2539;DHT22;1280;49.760;9.664;2023-05-10T17:00:40;18.90;71.20
2539;DHT22;1280;49.760;9.664;2023-05-10T17:03:16;18.90;71.20
2539;DHT22;1280;49.760;9.664;2023-05-10T17:05:50;18.90;71.20
2539;DHT22;1280;49.760;9.664;2023-05-10T17:08:28;18.90;71.10
2539;DHT22;1280;49.760;9.664;2023-05-10T17:11:00;18.90;71.10
2539;DHT22;1280;49.760;9.664;2023-05-10T17:13:47;18.90;70.90